createdAt,value
2023-04-10T00:01:28.350Z,30.37
2023-04-10T00:04:00.416Z,31.43
2023-04-10T00:06:33.033Z,31.33
2023-04-10T00:09:04.371Z,29.90
2023-04-10T00:11:35.898Z,30.00
2023-04-10T00:14:08.309Z,27.43
2023-04-10T00:16:39.812Z,28.90
2023-04-10T00:19:11.291Z,28.93
2023-04-10T00:21:42.851Z,26.93
2023-04-10T00:24:14.342Z,30.80
2023-04-10T00:26:46.031Z,26.40
2023-04-10T00:29:17.598Z,29.07
2023-04-10T00:31:49.868Z,27.97
2023-04-10T00:34:21.234Z,32.93
2023-04-10T00:36:52.570Z,34.67
2023-04-10T00:39:23.942Z,34.37
2023-04-10T00:41:55.287Z,33.30
2023-04-10T00:44:26.682Z,29.73
2023-04-10T00:46:58.068Z,25.40
2023-04-10T00:49:29.635Z,26.93
2023-04-10T00:52:01.524Z,29.60
2023-04-10T00:54:34.678Z,33.57
2023-04-10T00:57:06.200Z,32.40
2023-04-10T00:59:38.133Z,34.83
2023-04-10T01:02:13.055Z,29.70
2023-04-10T01:04:44.786Z,27.07
2023-04-10T01:07:35.713Z,31.70
2023-04-10T01:10:20.352Z,26.93
2023-04-10T01:13:13.507Z,27.97
2023-04-10T01:15:52.770Z,27.57
2023-04-10T01:18:31.780Z,33.63
2023-04-10T01:21:09.271Z,28.80
2023-04-10T01:23:57.416Z,26.33
2023-04-10T01:26:52.874Z,28.87
2023-04-10T01:29:29.542Z,29.07
2023-04-10T01:32:04.839Z,29.57
2023-04-10T01:34:43.640Z,29.17
2023-04-10T01:37:24.691Z,31.23
2023-04-10T01:40:08.555Z,28.00
2023-04-10T01:42:45.240Z,29.57
2023-04-10T01:45:21.004Z,28.87
2023-04-10T01:47:53.299Z,32.25
2023-04-10T01:50:28.713Z,28.73
2023-04-10T01:53:01.688Z,28.15
2023-04-10T01:55:34.103Z,30.97
2023-04-10T01:58:06.338Z,30.60
2023-04-10T02:00:42.984Z,24.83
2023-04-10T02:03:14.671Z,30.67
2023-04-10T02:05:56.841Z,28.57
2023-04-10T02:08:39.892Z,31.80
2023-04-10T02:11:17.774Z,27.27
2023-04-10T02:13:50.971Z,28.33
2023-04-10T02:16:23.657Z,31.63
2023-04-10T02:18:56.265Z,24.57
2023-04-10T02:21:28.894Z,28.00
2023-04-10T02:24:00.769Z,27.13
2023-04-10T02:26:53.098Z,29.73
2023-04-10T02:29:24.559Z,30.77
2023-04-10T02:31:56.120Z,27.87
2023-04-10T02:34:27.496Z,28.40
2023-04-10T02:36:59.124Z,31.17
2023-04-10T02:39:30.647Z,33.03
2023-04-10T02:42:02.312Z,26.53
2023-04-10T02:44:33.810Z,29.60
2023-04-10T02:47:06.392Z,27.20
2023-04-10T02:49:39.731Z,29.63
2023-04-10T02:52:11.210Z,26.40
2023-04-10T02:54:42.737Z,30.17
2023-04-10T02:57:14.087Z,31.00
2023-04-10T02:59:45.862Z,26.53
2023-04-10T03:02:19.517Z,29.20
2023-04-10T03:04:54.464Z,29.57
2023-04-10T03:07:27.370Z,29.73
2023-04-10T03:09:59.763Z,27.37
2023-04-10T03:12:31.779Z,28.93
2023-04-10T03:15:03.360Z,34.57
2023-04-10T03:17:35.013Z,28.23
2023-04-10T03:20:07.067Z,30.43
2023-04-10T03:22:39.648Z,29.43
2023-04-10T03:25:11.233Z,26.63
2023-04-10T03:27:42.615Z,26.10
2023-04-10T03:30:14.049Z,30.77
2023-04-10T03:32:45.459Z,31.33
2023-04-10T03:35:16.848Z,30.50
2023-04-10T03:37:48.242Z,24.10
2023-04-10T03:40:20.031Z,29.83
2023-04-10T03:42:52.122Z,26.77
2023-04-10T03:45:23.984Z,25.70
2023-04-10T03:47:58.470Z,27.40
2023-04-10T03:50:29.898Z,28.33
2023-04-10T03:53:01.530Z,28.40
2023-04-10T03:55:32.852Z,27.30
2023-04-10T03:58:05.244Z,24.27
2023-04-10T04:00:36.596Z,26.63
2023-04-10T04:03:08.499Z,27.53
2023-04-10T04:05:40.238Z,29.10
2023-04-10T04:08:13.827Z,25.50
2023-04-10T04:10:45.698Z,31.40
2023-04-10T04:13:17.079Z,26.13
2023-04-10T04:15:48.613Z,21.97
2023-04-10T04:18:20.012Z,26.07
2023-04-10T04:20:51.486Z,28.80
2023-04-10T04:23:22.948Z,31.17
2023-04-10T04:25:56.365Z,23.27
2023-04-10T04:28:30.194Z,26.27
2023-04-10T04:31:02.548Z,27.07
2023-04-10T04:33:33.938Z,25.83
2023-04-10T04:36:05.534Z,27.33
2023-04-10T04:38:37.098Z,27.63
2023-04-10T04:41:08.575Z,28.37
2023-04-10T04:43:39.898Z,24.83
2023-04-10T04:46:11.302Z,25.43
2023-04-10T04:48:42.724Z,24.93
2023-04-10T04:51:14.865Z,21.57
2023-04-10T04:53:46.306Z,27.63
2023-04-10T04:56:17.649Z,27.20
2023-04-10T04:58:49.181Z,23.40
2023-04-10T05:01:20.603Z,27.23
2023-04-10T05:03:52.203Z,28.10
2023-04-10T05:06:23.755Z,26.07
2023-04-10T05:08:55.608Z,26.13
2023-04-10T05:11:27.284Z,25.43
2023-04-10T05:13:59.659Z,24.63
2023-04-10T05:16:31.040Z,28.80
2023-04-10T05:19:02.431Z,23.67
2023-04-10T05:21:33.774Z,24.80
2023-04-10T05:24:05.475Z,25.17
2023-04-10T05:26:36.874Z,24.53
2023-04-10T05:29:08.545Z,26.27
2023-04-10T05:31:40.128Z,23.47
2023-04-10T05:34:11.835Z,19.93
2023-04-10T05:36:43.389Z,23.83
2023-04-10T05:39:15.676Z,24.63
2023-04-10T05:41:47.071Z,22.77
2023-04-10T05:44:18.657Z,22.57
2023-04-10T05:46:50.051Z,24.87
2023-04-10T05:49:21.530Z,21.73
2023-04-10T05:51:53.414Z,22.63
2023-04-10T05:54:24.876Z,19.07
2023-04-10T05:56:56.701Z,23.27
2023-04-10T05:59:28.275Z,22.47
2023-04-10T06:01:59.711Z,24.60
2023-04-10T06:04:32.596Z,25.07
2023-04-10T06:07:04.095Z,21.27
2023-04-10T06:09:35.500Z,19.83
2023-04-10T06:12:06.872Z,23.47
2023-04-10T06:14:38.474Z,19.03
2023-04-10T06:17:11.924Z,18.20
2023-04-10T06:19:44.948Z,20.13
2023-04-10T06:22:16.262Z,17.73
2023-04-10T06:24:48.731Z,17.73
2023-04-10T06:27:20.091Z,18.70
2023-04-10T06:29:51.523Z,17.47
2023-04-10T06:32:22.933Z,21.97
2023-04-10T06:34:54.475Z,15.83
2023-04-10T06:37:31.327Z,18.50
2023-04-10T06:40:07.351Z,19.97
2023-04-10T06:42:38.746Z,18.10
2023-04-10T06:45:10.593Z,19.17
2023-04-10T06:47:42.405Z,16.23
2023-04-10T06:50:13.888Z,15.00
2023-04-10T06:52:46.104Z,17.50
2023-04-10T06:55:17.820Z,17.33
2023-04-10T06:57:49.308Z,18.17
2023-04-10T07:00:21.221Z,17.30
2023-04-10T07:02:52.728Z,14.73
2023-04-10T07:05:24.174Z,16.90
2023-04-10T07:07:55.825Z,16.47
2023-04-10T07:10:27.372Z,15.97
2023-04-10T07:12:58.920Z,14.87
2023-04-10T07:15:30.634Z,15.97
2023-04-10T07:18:02.096Z,13.57
2023-04-10T07:20:33.650Z,14.17
2023-04-10T07:23:05.173Z,14.80
2023-04-10T07:25:36.536Z,13.17
2023-04-10T07:28:07.880Z,14.97
2023-04-10T07:30:39.400Z,13.73
2023-04-10T07:33:11.177Z,13.47
2023-04-10T07:35:42.669Z,13.90
2023-04-10T07:38:14.132Z,16.97
2023-04-10T07:40:45.523Z,14.87
2023-04-10T07:43:16.914Z,17.60
2023-04-10T07:45:48.621Z,12.90
2023-04-10T07:48:20.192Z,12.27
2023-04-10T07:50:51.564Z,13.10
2023-04-10T07:53:22.929Z,14.57
2023-04-10T07:55:54.401Z,11.57
2023-04-10T07:58:25.882Z,12.00
2023-04-10T08:00:57.797Z,12.63
2023-04-10T08:03:29.364Z,12.23
2023-04-10T08:06:01.090Z,11.17
2023-04-10T08:08:32.738Z,12.13
2023-04-10T08:11:08.639Z,14.43
2023-04-10T08:13:40.351Z,12.13
2023-04-10T08:16:11.712Z,13.20
2023-04-10T08:18:43.225Z,10.27
2023-04-10T08:21:14.631Z,11.43
2023-04-10T08:23:48.926Z,10.23
2023-04-10T08:26:21.536Z,9.63
2023-04-10T08:28:54.443Z,9.80
2023-04-10T08:31:28.073Z,9.90
2023-04-10T08:34:00.299Z,10.20
2023-04-10T08:36:32.086Z,10.37
2023-04-10T08:39:03.474Z,11.60
2023-04-10T08:41:34.871Z,11.63
2023-04-10T08:44:06.416Z,10.07
2023-04-10T08:46:43.742Z,9.40
2023-04-10T08:49:39.244Z,9.67
2023-04-10T08:52:15.847Z,11.93
2023-04-10T08:54:58.558Z,9.53
2023-04-10T08:57:30.382Z,10.73
2023-04-10T09:00:09.616Z,10.90
2023-04-10T09:02:55.335Z,9.03
2023-04-10T09:05:28.369Z,10.05
2023-04-10T09:07:59.779Z,8.60
2023-04-10T09:10:31.658Z,10.27
2023-04-10T09:13:03.080Z,8.48
2023-04-10T09:16:00.435Z,9.52
2023-04-10T09:18:51.350Z,12.07
2023-04-10T09:21:23.011Z,9.75
2023-04-10T09:24:01.054Z,9.43
2023-04-10T09:26:33.630Z,10.45
2023-04-10T09:29:07.585Z,11.60
2023-04-10T09:31:40.157Z,9.38
2023-04-10T09:34:22.792Z,8.25
2023-04-10T09:36:56.842Z,9.27
2023-04-10T09:39:36.141Z,8.13
2023-04-10T09:42:07.627Z,9.52
2023-04-10T09:44:40.652Z,7.75
2023-04-10T09:47:14.778Z,7.88
2023-04-10T09:50:02.852Z,9.73
2023-04-10T09:52:38.277Z,8.45
2023-04-10T09:55:16.914Z,7.05
2023-04-10T09:57:48.297Z,7.05
2023-04-10T10:00:20.759Z,8.77
2023-04-10T10:02:54.481Z,8.10
2023-04-10T10:05:30.725Z,6.75
2023-04-10T10:08:02.222Z,9.45
2023-04-10T10:10:33.999Z,6.22
2023-04-10T10:13:08.456Z,9.13
2023-04-10T10:16:09.352Z,8.80
2023-04-10T10:19:04.185Z,6.05
2023-04-10T10:21:36.781Z,7.25
2023-04-10T10:24:09.441Z,7.43
2023-04-10T10:26:41.274Z,6.78
2023-04-10T10:29:15.998Z,6.60
2023-04-10T10:31:47.752Z,9.65
2023-04-10T10:34:19.858Z,8.63
2023-04-10T10:36:51.220Z,7.53
2023-04-10T10:39:42.309Z,8.73
2023-04-10T10:42:23.386Z,7.75
2023-04-10T10:45:15.817Z,6.60
2023-04-10T10:47:53.343Z,7.47
2023-04-10T10:50:25.028Z,7.20
2023-04-10T10:52:57.508Z,7.88
2023-04-10T10:55:35.085Z,10.32
2023-04-10T10:58:11.192Z,5.88
2023-04-10T11:00:51.617Z,6.28
2023-04-10T11:03:23.177Z,6.38
2023-04-10T11:05:55.284Z,8.10
2023-04-10T11:08:32.651Z,6.50
2023-04-10T11:11:11.067Z,6.50
2023-04-10T11:14:05.573Z,5.88
2023-04-10T11:16:41.609Z,4.20
2023-04-10T11:19:16.136Z,5.78
2023-04-10T11:22:06.013Z,6.82
2023-04-10T11:24:53.404Z,6.38
2023-04-10T11:27:41.210Z,8.73
2023-04-10T11:30:32.647Z,5.53
2023-04-10T11:33:05.425Z,5.78
2023-04-10T11:35:37.255Z,5.20
2023-04-10T11:38:13.618Z,6.00
2023-04-10T11:41:06.813Z,5.43
2023-04-10T11:43:39.185Z,5.85
2023-04-10T11:46:10.872Z,5.43
2023-04-10T11:48:42.815Z,7.10
2023-04-10T11:51:14.691Z,6.90
2023-04-10T11:53:46.428Z,7.47
2023-04-10T11:56:21.333Z,6.95
2023-04-10T11:58:54.425Z,8.73
2023-04-10T12:01:26.383Z,4.90
2023-04-10T12:03:57.979Z,5.75
2023-04-10T12:06:29.783Z,7.05
2023-04-10T12:09:13.297Z,4.35
2023-04-10T12:11:54.707Z,5.53
2023-04-10T12:14:39.989Z,7.78
2023-04-10T12:17:12.818Z,6.50
2023-04-10T12:19:44.514Z,6.25
2023-04-10T12:22:15.922Z,4.38
2023-04-10T12:24:48.152Z,7.68
2023-04-10T12:27:27.648Z,5.45
2023-04-10T12:29:59.201Z,7.60
2023-04-10T12:32:30.728Z,5.20
2023-04-10T12:35:02.267Z,6.32
2023-04-10T12:37:50.453Z,5.32
2023-04-10T12:40:21.997Z,7.45
2023-04-10T12:42:53.328Z,5.95
2023-04-10T12:45:45.925Z,5.65
2023-04-10T12:48:24.151Z,4.32
2023-04-10T12:50:55.555Z,5.60
2023-04-10T12:53:28.117Z,6.97
2023-04-10T12:56:02.123Z,5.75
2023-04-10T12:58:33.569Z,4.43
2023-04-10T13:01:07.158Z,8.32
2023-04-10T13:03:38.883Z,3.92
2023-04-10T13:06:10.317Z,5.63
2023-04-10T13:08:41.730Z,8.85
2023-04-10T13:11:13.060Z,7.15
2023-04-10T13:13:44.393Z,5.07
2023-04-10T13:16:17.014Z,4.75
2023-04-10T13:18:48.479Z,6.88
2023-04-10T13:21:22.889Z,6.25
2023-04-10T13:23:56.030Z,7.00
2023-04-10T13:26:27.484Z,6.25
2023-04-10T13:28:58.825Z,7.13
2023-04-10T13:31:30.325Z,5.75
2023-04-10T13:34:01.949Z,4.40
2023-04-10T13:36:33.386Z,7.10
2023-04-10T13:39:04.827Z,6.13
2023-04-10T13:41:36.140Z,8.23
2023-04-10T13:44:07.507Z,5.45
2023-04-10T13:46:38.847Z,8.07
2023-04-10T13:49:10.379Z,6.13
2023-04-10T13:51:41.885Z,8.38
2023-04-10T13:54:14.127Z,6.00
2023-04-10T13:56:46.417Z,7.18
2023-04-10T13:59:17.899Z,7.75
2023-04-10T14:01:52.419Z,5.47
2023-04-10T14:04:23.948Z,5.68
2023-04-10T14:06:58.655Z,7.70
2023-04-10T14:09:30.173Z,6.55
2023-04-10T14:12:01.943Z,8.52
2023-04-10T14:14:33.470Z,7.18
2023-04-10T14:17:04.893Z,6.57
2023-04-10T14:19:37.447Z,7.78
2023-04-10T14:22:08.810Z,6.35
2023-04-10T14:24:40.186Z,7.95
2023-04-10T14:27:13.283Z,7.93
2023-04-10T14:29:53.909Z,10.18
2023-04-10T14:32:26.308Z,8.38
2023-04-10T14:34:57.746Z,7.40
2023-04-10T14:37:29.125Z,9.82
2023-04-10T14:40:00.640Z,6.47
2023-04-10T14:42:31.965Z,5.32
2023-04-10T14:45:05.462Z,4.93
2023-04-10T14:47:37.072Z,5.32
2023-04-10T14:50:08.823Z,6.75
2023-04-10T14:52:40.172Z,8.23
2023-04-10T14:55:11.922Z,8.63
2023-04-10T14:57:43.308Z,8.73
2023-04-10T15:00:14.919Z,5.85
2023-04-10T15:02:46.719Z,5.55
2023-04-10T15:05:18.338Z,6.25
2023-04-10T15:07:49.723Z,6.22
2023-04-10T15:10:21.291Z,4.75
2023-04-10T15:12:52.618Z,4.32
2023-04-10T15:15:23.954Z,6.53
2023-04-10T15:17:55.580Z,4.68
2023-04-10T15:20:26.977Z,6.65
2023-04-10T15:22:58.705Z,5.10
2023-04-10T15:25:32.948Z,9.23
2023-04-10T15:28:04.636Z,5.50
2023-04-10T15:30:36.292Z,8.23
2023-04-10T15:33:07.889Z,4.50
2023-04-10T15:35:39.376Z,3.88
2023-04-10T15:38:11.591Z,3.72
2023-04-10T15:40:43.020Z,4.15
2023-04-10T15:43:14.531Z,8.07
2023-04-10T15:45:46.786Z,7.43
2023-04-10T15:48:19.192Z,4.82
2023-04-10T15:50:50.717Z,4.82
2023-04-10T15:53:22.028Z,4.97
2023-04-10T15:55:53.696Z,5.32
2023-04-10T15:58:25.217Z,5.57
2023-04-10T16:00:56.566Z,3.95
2023-04-10T16:03:30.163Z,6.75
2023-04-10T16:06:01.971Z,3.95
2023-04-10T16:08:33.297Z,3.60
2023-04-10T16:11:04.999Z,3.28
2023-04-10T16:13:38.636Z,3.15
2023-04-10T16:16:17.972Z,4.60
2023-04-10T16:18:49.559Z,5.75
2023-04-10T16:21:21.811Z,4.45
2023-04-10T16:23:53.557Z,7.30
2023-04-10T16:26:25.782Z,5.60
2023-04-10T16:28:57.340Z,5.63
2023-04-10T16:31:28.931Z,7.88
2023-04-10T16:34:01.343Z,5.70
2023-04-10T16:36:32.913Z,3.95
2023-04-10T16:39:04.328Z,6.73
2023-04-10T16:41:35.700Z,4.20
2023-04-10T16:44:07.003Z,6.10
2023-04-10T16:46:38.462Z,5.03
2023-04-10T16:49:10.055Z,5.23
2023-04-10T16:51:41.426Z,4.73
2023-04-10T16:54:13.074Z,5.33
2023-04-10T16:56:45.805Z,4.87
2023-04-10T16:59:17.227Z,5.63
2023-04-10T17:01:48.655Z,5.93
2023-04-10T17:04:20.421Z,6.20
2023-04-10T17:06:51.858Z,6.37
2023-04-10T17:09:23.345Z,6.00
2023-04-10T17:11:54.705Z,5.43
2023-04-10T17:14:26.054Z,5.23
2023-04-10T17:16:57.566Z,5.40
2023-04-10T17:19:30.358Z,5.07
2023-04-10T17:22:01.781Z,5.90
2023-04-10T17:24:33.250Z,7.43
2023-04-10T17:27:04.607Z,4.60
2023-04-10T17:29:39.342Z,5.17
2023-04-10T17:32:10.750Z,4.03
2023-04-10T17:34:42.172Z,4.97
2023-04-10T17:37:13.567Z,6.07
2023-04-10T17:39:45.093Z,6.87
2023-04-10T17:42:16.443Z,8.57
2023-04-10T17:44:47.732Z,8.90
2023-04-10T17:47:19.058Z,6.07
2023-04-10T17:49:50.463Z,5.03
2023-04-10T17:52:22.624Z,7.23
2023-04-10T17:54:54.171Z,4.47
2023-04-10T17:57:25.675Z,5.47
2023-04-10T17:59:57.073Z,5.23
2023-04-10T18:02:28.483Z,4.57
2023-04-10T18:05:02.035Z,5.50
2023-04-10T18:07:33.413Z,5.20
2023-04-10T18:10:10.557Z,4.70
2023-04-10T18:12:42.586Z,4.57
2023-04-10T18:15:17.053Z,5.37
2023-04-10T18:17:48.438Z,4.90
2023-04-10T18:20:20.852Z,4.17
2023-04-10T18:22:52.339Z,4.20
2023-04-10T18:25:23.675Z,6.13
2023-04-10T18:28:12.960Z,11.03
2023-04-10T18:30:45.487Z,4.87
2023-04-10T18:33:20.647Z,6.20
2023-04-10T18:35:57.390Z,5.32
2023-04-10T18:38:28.796Z,5.20
2023-04-10T18:41:00.219Z,5.37
2023-04-10T18:43:31.575Z,4.67
2023-04-10T18:46:03.138Z,4.40
2023-04-10T18:48:35.964Z,4.43
2023-04-10T18:51:07.784Z,4.87
2023-04-10T18:53:40.053Z,6.13
2023-04-10T18:56:11.366Z,5.50
2023-04-10T18:58:42.860Z,6.90
2023-04-10T19:01:14.470Z,5.57
2023-04-10T19:03:47.950Z,5.37
2023-04-10T19:06:23.982Z,6.00
2023-04-10T19:08:55.892Z,6.37
2023-04-10T19:11:27.451Z,5.57
2023-04-10T19:13:59.015Z,5.03
2023-04-10T19:16:30.540Z,3.30
2023-04-10T19:19:02.438Z,3.63
2023-04-10T19:21:34.441Z,5.70
2023-04-10T19:24:05.878Z,6.73
2023-04-10T19:26:37.949Z,10.93
2023-04-10T19:29:09.376Z,5.93
2023-04-10T19:31:41.059Z,4.10
2023-04-10T19:34:12.611Z,4.47
2023-04-10T19:36:44.131Z,3.80
2023-04-10T19:39:15.735Z,5.57
2023-04-10T19:41:47.456Z,4.60
2023-04-10T19:44:19.104Z,3.93
2023-04-10T19:46:50.567Z,3.60
2023-04-10T19:49:22.006Z,4.93
2023-04-10T19:51:53.529Z,4.43
2023-04-10T19:54:24.961Z,4.47
2023-04-10T19:56:57.778Z,3.97
2023-04-10T19:59:29.358Z,3.73
2023-04-10T20:02:00.774Z,3.00
2023-04-10T20:04:32.703Z,2.83
2023-04-10T20:07:04.179Z,3.80
2023-04-10T20:09:35.702Z,7.33
2023-04-10T20:12:08.433Z,5.23
2023-04-10T20:14:39.895Z,4.17
2023-04-10T20:17:12.119Z,5.73
2023-04-10T20:19:43.511Z,3.97
2023-04-10T20:22:14.885Z,8.53
2023-04-10T20:24:46.409Z,3.43
2023-04-10T20:27:17.869Z,3.50
2023-04-10T20:29:50.231Z,3.57
2023-04-10T20:32:21.596Z,3.97
2023-04-10T20:34:52.979Z,4.03
2023-04-10T20:37:24.605Z,4.97
2023-04-10T20:39:55.982Z,4.47
2023-04-10T20:42:27.338Z,4.37
2023-04-10T20:44:58.692Z,6.50
2023-04-10T20:47:30.358Z,4.27
2023-04-10T20:50:01.809Z,4.77
2023-04-10T20:52:34.131Z,3.30
2023-04-10T20:55:06.248Z,5.83
2023-04-10T20:57:37.675Z,3.43
2023-04-10T21:00:09.855Z,3.00
2023-04-10T21:02:41.394Z,4.10
2023-04-10T21:05:12.971Z,3.73
2023-04-10T21:07:45.775Z,3.67
2023-04-10T21:10:17.216Z,3.00
2023-04-10T21:12:48.484Z,8.90
2023-04-10T21:15:20.041Z,5.30
2023-04-10T21:17:51.471Z,4.50
2023-04-10T21:20:23.151Z,6.40
2023-04-10T21:22:54.510Z,3.73
2023-04-10T21:25:26.049Z,4.73
2023-04-10T21:27:57.420Z,2.93
2023-04-10T21:30:29.274Z,3.33
2023-04-10T21:33:00.705Z,3.33
2023-04-10T21:35:32.147Z,4.30
2023-04-10T21:38:03.664Z,3.17
2023-04-10T21:40:35.284Z,3.83
2023-04-10T21:43:06.787Z,3.23
2023-04-10T21:45:38.400Z,4.47
2023-04-10T21:48:09.830Z,3.97
2023-04-10T21:50:41.427Z,3.40
2023-04-10T21:53:13.256Z,4.10
2023-04-10T21:55:44.654Z,4.43
2023-04-10T21:58:16.267Z,2.60
2023-04-10T22:00:49.797Z,4.40
2023-04-10T22:03:22.021Z,6.77
2023-04-10T22:05:53.566Z,4.90
2023-04-10T22:08:24.992Z,6.17
2023-04-10T22:10:56.460Z,4.17
2023-04-10T22:13:31.216Z,4.13
2023-04-10T22:16:02.879Z,5.30
2023-04-10T22:18:34.343Z,12.83
2023-04-10T22:21:06.079Z,8.23
2023-04-10T22:23:37.460Z,4.53
2023-04-10T22:26:08.811Z,5.00
2023-04-10T22:28:40.188Z,5.10
2023-04-10T22:31:16.600Z,6.37
2023-04-10T22:33:49.179Z,6.63
2023-04-10T22:36:21.456Z,6.07
2023-04-10T22:38:53.035Z,7.87
2023-04-10T22:41:24.531Z,5.07
2023-04-10T22:43:55.956Z,7.43
2023-04-10T22:46:27.324Z,5.40
2023-04-10T22:48:58.761Z,6.07
2023-04-10T22:51:30.127Z,5.90
2023-04-10T22:54:01.532Z,4.27
2023-04-10T22:56:32.883Z,5.93
2023-04-10T22:59:04.177Z,5.23
2023-04-10T23:01:36.549Z,4.77
2023-04-10T23:04:08.027Z,5.70
2023-04-10T23:06:40.209Z,5.40
2023-04-10T23:09:11.847Z,4.40
2023-04-10T23:11:43.480Z,5.23
2023-04-10T23:14:14.867Z,4.80
2023-04-10T23:16:46.537Z,5.67
2023-04-10T23:19:18.547Z,8.13
2023-04-10T23:21:50.458Z,3.93
2023-04-10T23:24:21.889Z,4.37
2023-04-10T23:26:53.199Z,4.53
2023-04-10T23:29:24.671Z,5.17
2023-04-10T23:31:56.168Z,4.50
2023-04-10T23:34:27.542Z,3.30
2023-04-10T23:36:59.233Z,3.57
2023-04-10T23:39:30.708Z,3.90
2023-04-10T23:42:02.616Z,4.80
2023-04-10T23:44:34.179Z,5.13
2023-04-10T23:47:06.380Z,3.50
2023-04-10T23:49:37.781Z,4.87
2023-04-10T23:52:10.166Z,4.90
2023-04-10T23:54:43.562Z,4.53
2023-04-10T23:57:15.071Z,2.37
2023-04-10T23:59:46.752Z,7.40
